Time;durP1;ratioP1;P1;durP2;ratioP2;P2;SDS_P1;SDS_P2;PMS_P1;PMS_P2;Temp;Humidity;BMP_temperature;BMP_pressure;BME280_temperature;BME280_humidity;BME280_pressure;Samples;Min_cycle;Max_cycle;Signal;HPM_P1;HPM_P2
2022/03/11 00:00:04;;;;;;;16.90;13.32;;;4.30;67.20;;;;;;2079203;28;20029;-67
2022/03/11 00:01:06;;;;;;;17.55;14.05;;;4.30;68.30;;;;;;2080952;28;20026;-67
2022/03/11 00:02:06;;;;;;;19.08;13.80;;;4.20;68.80;;;;;;2077886;28;20025;-67
2022/03/11 00:03:07;;;;;;;20.98;16.10;;;4.20;69.00;;;;;;2076952;28;20021;-67
2022/03/11 00:04:08;;;;;;;17.80;14.10;;;4.30;69.30;;;;;;2073288;28;20026;-67
2022/03/11 00:05:08;;;;;;;17.45;13.45;;;4.20;69.30;;;;;;2081592;28;20037;-68
2022/03/11 00:06:09;;;;;;;21.65;14.80;;;4.20;69.00;;;;;;2081934;28;20099;-67
2022/03/11 00:07:09;;;;;;;16.40;13.43;;;4.20;69.20;;;;;;2079690;28;20024;-67
2022/03/11 00:08:10;;;;;;;20.70;13.52;;;4.20;69.20;;;;;;2080071;28;20049;-67
2022/03/11 00:09:11;;;;;;;18.33;13.43;;;4.20;70.00;;;;;;2078833;28;20063;-67
2022/03/11 00:10:12;;;;;;;16.13;12.65;;;4.20;69.50;;;;;;2076769;28;20026;-68
2022/03/11 00:11:12;;;;;;;21.88;13.70;;;4.10;69.60;;;;;;2076464;28;20041;-67
2022/03/11 00:12:13;;;;;;;16.92;13.32;;;4.10;69.40;;;;;;2073844;28;20030;-67
2022/03/11 00:13:13;;;;;;;18.20;13.75;;;4.10;69.30;;;;;;2082383;28;20029;-67
2022/03/11 00:14:14;;;;;;;17.40;13.95;;;4.10;69.10;;;;;;2082804;28;20439;-67
2022/03/11 00:15:15;;;;;;;18.08;15.15;;;4.10;69.30;;;;;;2075953;28;20037;-67
2022/03/11 00:16:15;;;;;;;15.27;12.95;;;4.10;70.00;;;;;;2079855;28;20018;-69
2022/03/11 00:17:15;;;;;;;16.75;13.93;;;4.10;70.30;;;;;;2074050;28;20458;-67
2022/03/11 00:18:17;;;;;;;15.60;13.20;;;4.10;70.20;;;;;;2079274;28;20450;-67
2022/03/11 00:19:17;;;;;;;18.95;13.95;;;4.00;70.20;;;;;;2078254;28;20454;-67
2022/03/11 00:20:21;;;;;;;17.17;13.35;;;4.00;70.60;;;;;;2078260;28;20389;-67
2022/03/11 00:21:22;;;;;;;19.17;14.18;;;4.00;70.40;;;;;;2082742;28;20458;-67
2022/03/11 00:22:22;;;;;;;16.92;13.30;;;4.00;70.50;;;;;;2081654;28;20523;-68
2022/03/11 00:23:23;;;;;;;16.55;13.77;;;4.00;70.80;;;;;;2076637;28;20033;-67
2022/03/11 00:24:23;;;;;;;19.75;14.60;;;4.00;70.70;;;;;;2081538;28;20055;-67
2022/03/11 00:25:24;;;;;;;20.00;15.25;;;3.90;70.70;;;;;;2074522;28;20026;-67
2022/03/11 00:26:25;;;;;;;18.70;14.00;;;4.00;71.00;;;;;;2079325;28;20037;-67
2022/03/11 00:27:25;;;;;;;15.68;13.40;;;3.90;71.60;;;;;;2076966;28;20105;-67
2022/03/11 00:28:26;;;;;;;18.50;13.10;;;3.90;71.40;;;;;;2079413;28;20026;-67
2022/03/11 00:29:27;;;;;;;20.52;13.95;;;3.90;71.60;;;;;;2082610;28;20061;-67
2022/03/11 00:30:28;;;;;;;15.80;13.00;;;3.90;71.50;;;;;;2077053;28;20041;-67
2022/03/11 00:31:29;;;;;;;23.40;13.70;;;3.90;71.70;;;;;;2081059;28;20037;-67
2022/03/11 00:32:29;;;;;;;16.80;13.18;;;3.90;71.50;;;;;;2083742;28;20036;-67
2022/03/11 00:33:30;;;;;;;16.48;13.95;;;3.80;71.40;;;;;;2075287;28;20026;-67
2022/03/11 00:34:31;;;;;;;20.17;14.68;;;3.90;71.60;;;;;;2077236;28;20026;-67
2022/03/11 00:35:32;;;;;;;17.35;14.88;;;3.80;72.00;;;;;;2078096;28;20434;-67
2022/03/11 00:36:33;;;;;;;17.63;14.45;;;3.80;73.10;;;;;;2081440;28;20033;-67
2022/03/11 00:37:33;;;;;;;21.05;13.38;;;3.80;73.10;;;;;;2083668;28;20029;-67
2022/03/11 00:38:34;;;;;;;17.80;14.02;;;3.80;72.70;;;;;;2078192;28;20033;-67
2022/03/11 00:39:34;;;;;;;19.10;15.05;;;3.80;72.50;;;;;;2076669;28;20034;-67
2022/03/11 00:40:35;;;;;;;17.80;13.43;;;3.70;72.90;;;;;;2080915;28;20034;-67
2022/03/11 00:41:36;;;;;;;17.10;13.73;;;3.70;72.50;;;;;;2076742;28;20136;-67
2022/03/11 00:42:37;;;;;;;17.88;13.23;;;3.70;72.50;;;;;;2078403;28;20378;-68
2022/03/11 00:43:37;;;;;;;15.65;13.15;;;3.70;72.30;;;;;;2079422;28;20033;-67
2022/03/11 00:44:39;;;;;;;19.52;14.15;;;3.70;72.60;;;;;;2084789;28;20033;-67
2022/03/11 00:45:40;;;;;;;20.20;14.25;;;3.70;72.50;;;;;;2083273;28;20101;-67
2022/03/11 00:46:41;;;;;;;19.88;14.50;;;3.70;72.80;;;;;;2079597;28;20084;-67
2022/03/11 00:47:41;;;;;;;16.30;13.85;;;3.70;73.50;;;;;;2078907;28;20029;-67
2022/03/11 00:48:42;;;;;;;17.42;13.10;;;3.70;73.70;;;;;;2080124;28;20724;-67
2022/03/11 00:49:42;;;;;;;22.83;15.32;;;3.60;73.50;;;;;;2082438;28;20031;-67
2022/03/11 00:50:43;;;;;;;17.98;14.80;;;3.60;73.80;;;;;;2080254;28;20034;-67
2022/03/11 00:51:44;;;;;;;19.55;13.77;;;3.60;75.30;;;;;;2080073;28;20435;-67
2022/03/11 00:52:45;;;;;;;16.83;13.18;;;3.60;75.60;;;;;;2082068;28;20373;-67
2022/03/11 00:53:45;;;;;;;18.33;14.80;;;3.60;75.50;;;;;;2079505;28;20021;-67
2022/03/11 00:54:46;;;;;;;20.05;14.48;;;3.50;75.30;;;;;;2079886;28;20045;-67
2022/03/11 00:55:46;;;;;;;23.08;15.43;;;3.50;75.70;;;;;;2075037;28;20388;-67
2022/03/11 00:56:47;;;;;;;18.83;15.02;;;3.50;76.20;;;;;;2073412;28;20049;-67
2022/03/11 00:57:47;;;;;;;20.58;14.90;;;3.50;76.00;;;;;;2075546;28;20025;-67
2022/03/11 00:58:48;;;;;;;18.85;15.13;;;3.50;75.90;;;;;;2076860;28;20014;-67
2022/03/11 00:59:48;;;;;;;19.75;14.15;;;3.50;75.90;;;;;;2079997;28;20055;-67
2022/03/11 01:00:49;;;;;;;17.55;12.80;;;3.50;75.70;;;;;;2084510;28;20075;-67
2022/03/11 01:01:49;;;;;;;16.50;13.45;;;3.50;76.60;;;;;;2082730;28;20045;-67
2022/03/11 01:02:50;;;;;;;17.10;14.23;;;3.50;76.00;;;;;;2080733;28;20017;-67
2022/03/11 01:03:50;;;;;;;16.88;13.50;;;3.40;75.60;;;;;;2078906;28;20020;-67
2022/03/11 01:04:51;;;;;;;17.63;13.98;;;3.40;76.00;;;;;;2078207;28;20033;-67
2022/03/11 01:05:51;;;;;;;19.52;13.15;;;3.40;75.70;;;;;;2079719;28;20060;-67
2022/03/11 01:06:52;;;;;;;19.17;14.82;;;3.40;75.80;;;;;;2080628;28;20045;-68
2022/03/11 01:07:53;;;;;;;24.77;15.93;;;3.40;75.90;;;;;;2085032;28;20028;-67
2022/03/11 01:08:53;;;;;;;19.23;15.05;;;3.40;76.40;;;;;;2080592;28;20045;-67
2022/03/11 01:09:54;;;;;;;22.05;15.63;;;3.40;77.80;;;;;;2080190;28;20025;-67
2022/03/11 01:10:55;;;;;;;20.38;15.90;;;3.40;77.60;;;;;;2080830;28;20100;-67
2022/03/11 01:11:55;;;;;;;19.77;14.70;;;3.40;78.20;;;;;;2079355;28;20864;-67
2022/03/11 01:12:56;;;;;;;15.98;13.45;;;3.40;78.50;;;;;;2073263;28;20021;-67
2022/03/11 01:13:57;;;;;;;21.52;16.13;;;3.30;77.60;;;;;;2081498;28;20470;-67
2022/03/11 01:14:57;;;;;;;18.55;13.90;;;3.40;77.70;;;;;;2077298;28;20028;-67
2022/03/11 01:15:58;;;;;;;17.63;13.80;;;3.40;77.50;;;;;;2084156;28;20021;-67
2022/03/11 01:16:58;;;;;;;22.65;15.25;;;3.30;77.20;;;;;;2081308;28;20032;-67
2022/03/11 01:17:59;;;;;;;18.10;14.25;;;3.30;77.40;;;;;;2083489;28;20017;-67
2022/03/11 01:19:00;;;;;;;19.75;15.52;;;3.30;77.90;;;;;;2083242;28;20052;-67
2022/03/11 01:20:00;;;;;;;18.50;13.85;;;3.30;77.90;;;;;;2081792;28;20059;-67
2022/03/11 01:21:01;;;;;;;20.05;14.73;;;3.30;77.70;;;;;;2079061;28;20028;-67
2022/03/11 01:22:01;;;;;;;17.25;14.23;;;3.30;78.80;;;;;;2076652;28;20033;-67
2022/03/11 01:23:02;;;;;;;18.83;14.65;;;3.30;77.80;;;;;;2076725;28;20035;-67
2022/03/11 01:24:03;;;;;;;15.25;13.55;;;3.30;78.70;;;;;;2084097;28;20021;-67
2022/03/11 01:25:05;;;;;;;22.38;15.05;;;3.20;78.70;;;;;;2079560;28;20029;-69
2022/03/11 01:26:05;;;;;;;16.73;13.25;;;3.20;78.90;;;;;;2082934;28;20639;-67
2022/03/11 01:27:06;;;;;;;22.23;13.88;;;3.30;78.10;;;;;;2082373;28;20052;-67
2022/03/11 01:28:07;;;;;;;20.98;15.38;;;3.20;77.80;;;;;;2079206;28;20049;-67
2022/03/11 01:29:07;;;;;;;19.27;15.82;;;3.20;79.00;;;;;;2078890;28;20021;-67
2022/03/11 01:30:09;;;;;;;18.13;14.00;;;3.20;80.20;;;;;;2076846;28;20029;-67
2022/03/11 01:31:11;;;;;;;19.30;15.38;;;3.20;79.50;;;;;;2077189;28;20018;-67
2022/03/11 01:32:12;;;;;;;20.08;15.13;;;3.20;79.30;;;;;;2084384;28;20470;-67
2022/03/11 01:33:12;;;;;;;19.15;14.18;;;3.10;79.90;;;;;;2080659;28;20444;-69
2022/03/11 01:34:14;;;;;;;23.77;16.17;;;3.20;79.90;;;;;;2077771;28;20021;-67
2022/03/11 01:35:14;;;;;;;20.98;15.60;;;3.20;80.40;;;;;;2073561;28;20423;-67
2022/03/11 01:36:15;;;;;;;17.75;13.98;;;3.10;81.10;;;;;;2081407;28;20045;-67
2022/03/11 01:37:15;;;;;;;22.85;15.88;;;3.10;80.60;;;;;;2080125;28;20033;-67
2022/03/11 01:38:16;;;;;;;18.35;13.93;;;3.10;80.70;;;;;;2075517;28;20120;-67
2022/03/11 01:39:16;;;;;;;21.63;14.95;;;3.10;80.50;;;;;;2082935;28;20031;-67
2022/03/11 01:40:17;;;;;;;19.50;15.40;;;3.10;80.00;;;;;;2083930;28;20036;-67
2022/03/11 01:41:17;;;;;;;18.85;13.68;;;3.10;79.90;;;;;;2079479;28;20032;-67
2022/03/11 01:42:18;;;;;;;19.42;14.52;;;3.10;80.40;;;;;;2076316;28;20033;-69
2022/03/11 01:43:19;;;;;;;18.73;14.93;;;3.10;80.30;;;;;;2074942;28;20097;-67
2022/03/11 01:44:19;;;;;;;18.65;13.25;;;3.00;80.20;;;;;;2081007;28;20107;-68
2022/03/11 01:45:20;;;;;;;18.42;13.60;;;3.00;80.20;;;;;;2078930;28;20033;-69
2022/03/11 01:46:21;;;;;;;20.33;14.38;;;3.00;80.00;;;;;;2076629;28;20060;-69
2022/03/11 01:47:21;;;;;;;14.98;12.80;;;3.00;80.10;;;;;;2084572;28;20057;-69
2022/03/11 01:48:22;;;;;;;16.95;13.15;;;3.00;80.00;;;;;;2083022;28;20017;-69
2022/03/11 01:49:23;;;;;;;16.75;13.95;;;3.00;80.60;;;;;;2079271;28;20101;-69
2022/03/11 01:50:23;;;;;;;16.73;13.52;;;3.00;80.30;;;;;;2081583;28;20029;-69
2022/03/11 01:51:27;;;;;;;18.40;14.73;;;2.90;80.60;;;;;;2078966;28;20032;-66
2022/03/11 01:52:27;;;;;;;21.85;15.10;;;2.90;81.20;;;;;;2078888;28;20481;-68
2022/03/11 01:53:28;;;;;;;21.20;15.88;;;2.90;81.70;;;;;;2078648;28;20444;-69
2022/03/11 01:54:28;;;;;;;23.42;14.38;;;2.90;82.20;;;;;;2076435;28;20026;-69
2022/03/11 01:55:29;;;;;;;19.48;15.07;;;2.90;82.70;;;;;;2077473;28;20478;-68
2022/03/11 01:56:31;;;;;;;21.40;14.55;;;2.90;83.40;;;;;;2074591;28;20034;-69
2022/03/11 01:57:34;;;;;;;19.65;14.43;;;2.90;83.30;;;;;;2074346;28;20105;-69
2022/03/11 01:58:35;;;;;;;20.58;14.40;;;2.90;83.20;;;;;;2075836;28;20037;-68
2022/03/11 01:59:36;;;;;;;20.30;13.90;;;2.80;83.30;;;;;;2078950;28;20544;-69
2022/03/11 02:00:38;;;;;;;21.08;14.98;;;2.80;83.20;;;;;;2080036;28;20497;-69
2022/03/11 02:01:39;;;;;;;23.83;14.55;;;2.80;83.50;;;;;;2077702;28;20113;-68
2022/03/11 02:02:39;;;;;;;20.48;14.00;;;2.80;83.20;;;;;;2080123;28;20073;-68
2022/03/11 02:03:40;;;;;;;18.02;13.75;;;2.80;83.10;;;;;;2081802;28;20034;-69
2022/03/11 02:04:41;;;;;;;16.23;12.32;;;2.80;83.70;;;;;;2073870;28;20037;-69
2022/03/11 02:05:43;;;;;;;17.23;13.40;;;2.80;83.30;;;;;;2080796;28;20470;-68
2022/03/11 02:06:45;;;;;;;19.13;14.73;;;2.80;83.20;;;;;;2080826;28;20120;-69
2022/03/11 02:07:49;;;;;;;21.02;14.80;;;2.80;83.70;;;;;;2077268;28;20021;-69
2022/03/11 02:08:50;;;;;;;22.55;14.85;;;2.80;84.70;;;;;;2078824;28;20029;-68
2022/03/11 02:09:52;;;;;;;20.30;16.10;;;2.80;85.70;;;;;;2077955;28;20108;-68
2022/03/11 02:10:53;;;;;;;16.90;13.63;;;2.80;86.60;;;;;;2082877;28;20021;-69
2022/03/11 02:11:53;;;;;;;19.00;14.68;;;2.80;86.20;;;;;;2081361;28;20021;-68
2022/03/11 02:12:54;;;;;;;20.48;14.57;;;2.70;86.30;;;;;;2081013;28;20095;-69
2022/03/11 02:14:00;;;;;;;16.88;14.07;;;2.70;86.80;;;;;;2084390;28;20017;-68
2022/03/11 02:15:02;;;;;;;21.08;14.85;;;2.70;87.80;;;;;;2079489;28;20474;-68
2022/03/11 02:16:02;;;;;;;19.42;14.02;;;2.70;87.50;;;;;;2077660;28;20032;-68
2022/03/11 02:17:03;;;;;;;17.30;13.82;;;2.70;87.80;;;;;;2074329;28;20022;-68
2022/03/11 02:18:03;;;;;;;20.20;15.10;;;2.70;87.60;;;;;;2077308;28;20021;-67
2022/03/11 02:19:05;;;;;;;18.70;15.35;;;2.70;88.50;;;;;;2083415;28;20469;-69
2022/03/11 02:20:06;;;;;;;17.15;13.93;;;2.70;88.70;;;;;;2080615;28;20057;-67
2022/03/11 02:21:09;;;;;;;17.92;14.13;;;2.70;88.50;;;;;;2081294;28;20124;-67
2022/03/11 02:22:10;;;;;;;15.43;13.27;;;2.70;88.20;;;;;;2081388;28;20022;-67
2022/03/11 02:23:13;;;;;;;18.88;14.30;;;2.60;87.50;;;;;;2079247;28;20061;-67
2022/03/11 02:24:14;;;;;;;17.85;13.65;;;2.60;86.70;;;;;;2076784;28;20101;-67
2022/03/11 02:25:15;;;;;;;18.55;13.70;;;2.60;86.60;;;;;;2077210;28;20037;-67
2022/03/11 02:26:17;;;;;;;17.75;12.68;;;2.60;86.70;;;;;;2078572;28;20014;-67
2022/03/11 02:27:17;;;;;;;18.90;13.48;;;2.60;87.30;;;;;;2083905;28;20410;-67
2022/03/11 02:28:18;;;;;;;20.48;13.05;;;2.60;87.10;;;;;;2079814;28;20378;-67
2022/03/11 02:29:18;;;;;;;19.10;13.63;;;2.60;86.40;;;;;;2086478;28;20017;-68
2022/03/11 02:30:20;;;;;;;15.50;13.60;;;2.60;86.80;;;;;;2076172;28;20029;-67
2022/03/11 02:31:23;;;;;;;17.38;14.32;;;2.60;87.10;;;;;;2075260;28;20026;-67
2022/03/11 02:32:24;;;;;;;20.83;14.07;;;2.60;88.80;;;;;;2079064;28;20026;-67
2022/03/11 02:33:24;;;;;;;18.83;14.50;;;2.60;89.20;;;;;;2074719;28;20053;-67
2022/03/11 02:34:25;;;;;;;15.82;13.35;;;2.50;89.20;;;;;;2076770;28;20030;-67
2022/03/11 02:35:25;;;;;;;18.20;13.05;;;2.50;89.00;;;;;;2083226;28;20409;-67
2022/03/11 02:36:26;;;;;;;17.10;13.75;;;2.50;88.80;;;;;;2080416;28;20064;-67
2022/03/11 02:37:27;;;;;;;16.27;13.05;;;2.50;88.20;;;;;;2081108;28;20038;-67
2022/03/11 02:38:28;;;;;;;17.35;13.70;;;2.50;87.70;;;;;;2073275;28;20034;-67
2022/03/11 02:39:28;;;;;;;18.67;14.25;;;2.50;89.00;;;;;;2080581;28;20502;-67
2022/03/11 02:40:29;;;;;;;16.73;14.05;;;2.50;89.30;;;;;;2077012;28;20025;-67
2022/03/11 02:41:29;;;;;;;16.15;13.48;;;2.50;89.20;;;;;;2075688;28;20042;-67
2022/03/11 02:42:30;;;;;;;17.63;13.77;;;2.50;88.60;;;;;;2074576;28;20030;-67
2022/03/11 02:43:30;;;;;;;15.70;13.43;;;2.50;88.30;;;;;;2075554;28;20501;-67
2022/03/11 02:44:31;;;;;;;19.75;13.05;;;2.40;88.00;;;;;;2081587;28;20030;-67
2022/03/11 02:45:32;;;;;;;17.45;14.15;;;2.40;87.90;;;;;;2080788;28;20030;-67
2022/03/11 02:46:32;;;;;;;16.73;13.38;;;2.50;88.30;;;;;;2077442;28;20026;-67
2022/03/11 02:47:33;;;;;;;15.40;13.13;;;2.40;88.20;;;;;;2081814;28;20087;-67
2022/03/11 02:48:34;;;;;;;18.00;14.65;;;2.40;88.90;;;;;;2077770;28;20076;-67
2022/03/11 02:49:34;;;;;;;17.70;13.75;;;2.40;90.10;;;;;;2077567;28;20049;-68
2022/03/11 02:50:35;;;;;;;18.63;14.07;;;2.40;90.20;;;;;;2078344;28;20128;-67
2022/03/11 02:51:41;;;;;;;15.73;13.32;;;2.40;90.00;;;;;;2076705;28;20026;-67
2022/03/11 02:52:42;;;;;;;19.98;14.77;;;2.40;90.40;;;;;;2078276;28;20021;-67
2022/03/11 02:53:42;;;;;;;16.20;13.40;;;2.40;90.60;;;;;;2078396;28;20022;-67
2022/03/11 02:54:43;;;;;;;15.80;13.55;;;2.40;90.40;;;;;;2077276;28;20425;-67
2022/03/11 02:55:43;;;;;;;19.40;14.52;;;2.40;90.40;;;;;;2073845;28;20021;-67
2022/03/11 02:56:44;;;;;;;17.58;14.18;;;2.30;90.10;;;;;;2078512;28;20028;-67
2022/03/11 02:57:44;;;;;;;15.68;13.57;;;2.30;90.10;;;;;;2074994;28;20040;-67
2022/03/11 02:58:45;;;;;;;16.88;14.07;;;2.30;90.10;;;;;;2077858;28;20033;-67
2022/03/11 02:59:46;;;;;;;18.75;14.10;;;2.30;90.10;;;;;;2078724;28;20024;-67
2022/03/11 03:00:47;;;;;;;15.75;12.73;;;2.30;90.20;;;;;;2081805;28;20392;-67
2022/03/11 03:01:47;;;;;;;18.08;14.23;;;2.30;90.30;;;;;;2078251;28;20064;-67
2022/03/11 03:02:48;;;;;;;16.23;13.38;;;2.30;90.30;;;;;;2078093;28;20458;-67
2022/03/11 03:03:49;;;;;;;17.60;14.10;;;2.30;90.80;;;;;;2074828;28;20033;-67
2022/03/11 03:04:49;;;;;;;17.85;13.85;;;2.30;90.40;;;;;;2076230;28;20045;-67
2022/03/11 03:05:50;;;;;;;18.50;13.48;;;2.30;90.60;;;;;;2081127;28;20020;-67
2022/03/11 03:06:50;;;;;;;17.92;14.50;;;2.30;90.40;;;;;;2083225;28;20031;-67
2022/03/11 03:07:51;;;;;;;17.42;13.95;;;2.20;90.40;;;;;;2079073;28;20029;-67
2022/03/11 03:08:51;;;;;;;16.67;13.15;;;2.20;90.90;;;;;;2079409;28;20148;-67
2022/03/11 03:09:52;;;;;;;17.00;12.48;;;2.20;90.40;;;;;;2081470;28;20025;-67
2022/03/11 03:10:52;;;;;;;16.25;13.02;;;2.20;90.40;;;;;;2077954;28;20463;-67
2022/03/11 03:11:53;;;;;;;18.35;14.18;;;2.20;90.30;;;;;;2077070;28;20414;-67
2022/03/11 03:12:54;;;;;;;21.83;13.13;;;2.20;90.10;;;;;;2076761;28;20100;-67
2022/03/11 03:13:54;;;;;;;19.67;14.63;;;2.20;90.10;;;;;;2081507;28;20028;-67
2022/03/11 03:14:54;;;;;;;16.65;12.50;;;2.20;90.20;;;;;;2083104;28;20029;-67
2022/03/11 03:15:55;;;;;;;15.48;12.82;;;2.20;90.00;;;;;;2072421;28;20018;-67
2022/03/11 03:16:56;;;;;;;21.92;14.02;;;2.20;89.10;;;;;;2075843;28;20363;-67
2022/03/11 03:17:56;;;;;;;18.77;14.70;;;2.20;90.00;;;;;;2078770;28;20044;-67
2022/03/11 03:18:57;;;;;;;15.32;12.75;;;2.20;90.50;;;;;;2081064;28;20071;-67
2022/03/11 03:19:57;;;;;;;15.45;13.63;;;2.20;90.40;;;;;;2076298;28;20050;-67
2022/03/11 03:20:58;;;;;;;19.65;14.38;;;2.20;90.40;;;;;;2077133;28;20424;-67
2022/03/11 03:21:58;;;;;;;16.73;13.75;;;2.10;90.80;;;;;;2076315;28;20025;-67
2022/03/11 03:22:59;;;;;;;15.75;13.20;;;2.10;91.10;;;;;;2080317;28;20477;-67
2022/03/11 03:23:59;;;;;;;18.27;13.40;;;2.10;90.80;;;;;;2080291;28;20457;-67
2022/03/11 03:25:00;;;;;;;17.55;12.85;;;2.10;90.80;;;;;;2079334;28;20033;-67
2022/03/11 03:26:01;;;;;;;18.20;13.05;;;2.10;91.00;;;;;;2082926;28;20482;-67
2022/03/11 03:27:02;;;;;;;19.23;14.32;;;2.10;90.90;;;;;;2081466;28;20021;-67
2022/03/11 03:28:03;;;;;;;15.75;13.77;;;2.10;91.80;;;;;;2077037;28;20025;-67
2022/03/11 03:29:03;;;;;;;15.57;13.55;;;2.10;91.70;;;;;;2075859;28;20053;-67
2022/03/11 03:30:05;;;;;;;17.95;14.07;;;2.10;91.70;;;;;;2077040;28;20036;-67
2022/03/11 03:31:06;;;;;;;17.05;13.95;;;2.10;91.80;;;;;;2081450;28;20017;-67
2022/03/11 03:32:07;;;;;;;19.15;13.77;;;2.00;92.20;;;;;;2080593;28;20053;-67
2022/03/11 03:33:07;;;;;;;19.67;15.10;;;2.00;92.40;;;;;;2077609;28;20033;-67
2022/03/11 03:34:08;;;;;;;18.95;15.13;;;2.00;91.90;;;;;;2076953;28;20100;-67
2022/03/11 03:35:12;;;;;;;19.85;14.32;;;2.00;91.90;;;;;;2073556;28;20026;-67
2022/03/11 03:36:12;;;;;;;17.00;13.25;;;2.00;92.20;;;;;;2077562;28;20084;-67
2022/03/11 03:37:13;;;;;;;20.48;14.82;;;2.00;92.10;;;;;;2074188;28;20026;-67
2022/03/11 03:38:13;;;;;;;16.52;12.70;;;2.00;92.60;;;;;;2075824;28;20029;-67
2022/03/11 03:39:14;;;;;;;15.38;13.30;;;2.00;92.10;;;;;;2075567;28;20474;-67
2022/03/11 03:40:14;;;;;;;16.83;13.35;;;2.00;92.10;;;;;;2081502;28;20033;-67
2022/03/11 03:41:15;;;;;;;16.08;13.70;;;2.00;92.30;;;;;;2078394;28;20462;-67
2022/03/11 03:42:16;;;;;;;19.40;15.02;;;1.90;92.60;;;;;;2079594;28;20021;-67
2022/03/11 03:43:18;;;;;;;17.83;13.65;;;1.90;92.80;;;;;;2074401;28;20112;-67
2022/03/11 03:44:18;;;;;;;19.35;15.07;;;1.90;93.20;;;;;;2078608;28;20552;-67
2022/03/11 03:45:19;;;;;;;17.77;13.95;;;1.90;93.80;;;;;;2076856;28;20468;-67
2022/03/11 03:46:19;;;;;;;19.20;13.77;;;1.90;93.90;;;;;;2078662;28;20020;-67
2022/03/11 03:47:20;;;;;;;18.75;13.95;;;1.90;94.00;;;;;;2083247;28;20051;-67
2022/03/11 03:48:21;;;;;;;18.63;13.65;;;1.90;93.90;;;;;;2080166;28;20389;-67
2022/03/11 03:49:21;;;;;;;17.98;13.70;;;1.80;93.70;;;;;;2079019;28;20030;-67
2022/03/11 03:50:22;;;;;;;19.40;14.77;;;1.80;93.60;;;;;;2079244;28;20033;-67
2022/03/11 03:51:22;;;;;;;17.27;13.45;;;1.80;94.20;;;;;;2075062;28;20024;-67
2022/03/11 03:52:23;;;;;;;22.30;14.00;;;1.80;94.30;;;;;;2078013;28;20385;-67
2022/03/11 03:53:25;;;;;;;17.98;14.80;;;1.80;94.50;;;;;;2075856;28;20075;-67
2022/03/11 03:54:25;;;;;;;18.50;14.57;;;1.80;94.60;;;;;;2075517;28;20021;-67
2022/03/11 03:55:26;;;;;;;19.10;14.88;;;1.80;94.60;;;;;;2078440;28;20025;-67
2022/03/11 03:56:26;;;;;;;21.02;14.75;;;1.80;95.30;;;;;;2072009;28;20049;-67
2022/03/11 03:57:27;;;;;;;17.52;14.65;;;1.80;95.80;;;;;;2072439;28;20068;-67
2022/03/11 03:58:27;;;;;;;20.17;14.60;;;1.80;95.90;;;;;;2073524;28;20026;-67
2022/03/11 03:59:28;;;;;;;18.30;14.13;;;1.80;96.40;;;;;;2077602;28;20033;-67
2022/03/11 04:00:29;;;;;;;18.65;14.30;;;1.80;96.20;;;;;;2080202;28;20021;-67
2022/03/11 04:01:30;;;;;;;16.42;14.57;;;1.70;96.00;;;;;;2078415;28;20069;-67
2022/03/11 04:02:32;;;;;;;20.65;15.68;;;1.70;96.70;;;;;;2080814;28;20026;-67
2022/03/11 04:03:32;;;;;;;19.13;14.50;;;1.70;97.10;;;;;;2081533;28;20117;-67
2022/03/11 04:04:33;;;;;;;16.60;13.63;;;1.70;97.00;;;;;;2076796;28;20045;-67
2022/03/11 04:05:33;;;;;;;16.60;12.93;;;1.70;96.60;;;;;;2082970;28;20029;-67
2022/03/11 04:06:35;;;;;;;18.70;15.07;;;1.70;95.80;;;;;;2080711;28;20061;-67
2022/03/11 04:07:37;;;;;;;18.02;15.10;;;1.70;96.30;;;;;;2077513;28;20053;-67
2022/03/11 04:08:37;;;;;;;17.73;14.00;;;1.70;96.10;;;;;;2081543;28;20056;-67
2022/03/11 04:09:38;;;;;;;16.67;14.00;;;1.70;96.30;;;;;;2083477;28;20075;-67
2022/03/11 04:10:39;;;;;;;19.45;14.32;;;1.70;96.10;;;;;;2084593;28;20026;-67
2022/03/11 04:11:42;;;;;;;23.02;14.05;;;1.70;96.40;;;;;;2082986;28;20402;-67
2022/03/11 04:12:43;;;;;;;16.63;14.15;;;1.60;96.10;;;;;;2079656;28;20152;-67
2022/03/11 04:13:44;;;;;;;19.13;14.98;;;1.60;96.30;;;;;;2081369;28;20036;-67
2022/03/11 04:14:44;;;;;;;16.73;14.18;;;1.70;96.70;;;;;;2080317;28;20032;-67
2022/03/11 04:15:45;;;;;;;18.13;14.43;;;1.70;96.80;;;;;;2077762;28;20020;-67
2022/03/11 04:16:45;;;;;;;20.70;14.45;;;1.60;97.10;;;;;;2078141;28;20144;-67
2022/03/11 04:17:46;;;;;;;16.42;13.65;;;1.60;97.20;;;;;;2079821;28;20017;-67
2022/03/11 04:18:48;;;;;;;19.55;14.65;;;1.60;97.00;;;;;;2083016;28;20433;-67
2022/03/11 04:19:48;;;;;;;19.15;14.00;;;1.60;97.60;;;;;;2082416;28;20083;-67
2022/03/11 04:20:49;;;;;;;21.70;15.07;;;1.60;97.40;;;;;;2078364;28;20070;-67
2022/03/11 04:21:49;;;;;;;16.95;13.35;;;1.60;97.10;;;;;;2080159;28;20017;-67
2022/03/11 04:22:50;;;;;;;18.52;14.43;;;1.60;97.30;;;;;;2080084;28;20048;-67
2022/03/11 04:23:51;;;;;;;18.55;14.18;;;1.60;97.90;;;;;;2082023;28;20021;-67
2022/03/11 04:24:52;;;;;;;17.55;14.90;;;1.60;98.40;;;;;;2080163;28;20031;-67
2022/03/11 04:25:52;;;;;;;17.10;14.15;;;1.60;99.00;;;;;;2084505;28;20473;-67
2022/03/11 04:26:53;;;;;;;17.83;13.40;;;1.60;98.90;;;;;;2077442;28;20029;-67
2022/03/11 04:27:53;;;;;;;19.67;14.55;;;1.60;99.10;;;;;;2080091;28;20029;-67
2022/03/11 04:28:54;;;;;;;16.88;14.23;;;1.50;98.80;;;;;;2081818;28;20100;-67
2022/03/11 04:29:54;;;;;;;17.38;13.90;;;1.50;98.40;;;;;;2077324;28;20030;-67
2022/03/11 04:30:55;;;;;;;20.88;15.18;;;1.50;98.60;;;;;;2077830;28;20056;-67
2022/03/11 04:31:55;;;;;;;18.40;14.13;;;1.50;98.90;;;;;;2079722;28;20404;-67
2022/03/11 04:32:56;;;;;;;18.48;14.75;;;1.50;99.00;;;;;;2082595;28;20024;-67
2022/03/11 04:33:57;;;;;;;19.27;15.40;;;1.50;99.80;;;;;;2082610;28;20036;-67
2022/03/11 04:34:58;;;;;;;21.38;16.33;;;1.50;99.90;;;;;;2083413;28;20017;-67
2022/03/11 04:35:58;;;;;;;18.85;14.65;;;1.50;99.90;;;;;;2082087;28;20024;-68
2022/03/11 04:36:59;;;;;;;21.20;14.82;;;1.50;99.90;;;;;;2080174;28;20635;-67
2022/03/11 04:38:00;;;;;;;20.45;15.43;;;1.50;99.90;;;;;;2077642;28;20022;-67
2022/03/11 04:39:01;;;;;;;20.83;15.10;;;1.50;99.90;;;;;;2079207;28;20032;-67
2022/03/11 04:40:02;;;;;;;18.70;15.05;;;1.40;99.90;;;;;;2079925;28;20030;-67
2022/03/11 04:41:02;;;;;;;16.58;14.32;;;1.50;99.90;;;;;;2081106;28;20368;-67
2022/03/11 04:42:06;;;;;;;17.30;14.25;;;1.50;99.90;;;;;;2082236;28;20056;-67
2022/03/11 04:43:06;;;;;;;17.10;14.73;;;1.50;99.90;;;;;;2076030;28;20427;-67
2022/03/11 04:44:07;;;;;;;20.17;14.80;;;1.50;99.90;;;;;;2083461;28;20044;-67
2022/03/11 04:45:08;;;;;;;21.48;14.40;;;1.50;99.90;;;;;;2085407;28;20036;-67
2022/03/11 04:46:08;;;;;;;18.33;14.40;;;1.50;99.90;;;;;;2077639;28;20026;-67
2022/03/11 04:47:09;;;;;;;22.33;14.30;;;1.50;99.90;;;;;;2080317;28;20075;-67
2022/03/11 04:48:09;;;;;;;21.65;15.93;;;1.50;99.90;;;;;;2080086;28;20033;-67
2022/03/11 04:49:10;;;;;;;20.05;14.63;;;1.50;99.90;;;;;;2082198;28;20045;-67
2022/03/11 04:50:10;;;;;;;19.52;14.65;;;1.50;99.90;;;;;;2079215;28;20056;-67
2022/03/11 04:51:11;;;;;;;20.92;15.02;;;1.50;99.90;;;;;;2077992;28;20058;-67
2022/03/11 04:52:11;;;;;;;18.98;14.77;;;1.50;99.90;;;;;;2076926;28;20022;-67
2022/03/11 04:53:12;;;;;;;16.27;13.57;;;1.50;99.90;;;;;;2080134;28;20048;-67
2022/03/11 04:54:12;;;;;;;19.52;13.88;;;1.50;99.90;;;;;;2077496;28;20033;-67
2022/03/11 04:55:15;;;;;;;18.27;14.32;;;1.50;99.90;;;;;;2077480;28;20037;-67
2022/03/11 04:56:16;;;;;;;21.05;15.00;;;1.50;99.90;;;;;;2077870;28;20029;-67
2022/03/11 04:57:17;;;;;;;18.05;14.15;;;1.50;99.90;;;;;;2074454;28;20053;-67
2022/03/11 04:58:18;;;;;;;19.90;14.38;;;1.50;99.90;;;;;;2073572;28;20018;-67
2022/03/11 04:59:18;;;;;;;18.63;14.18;;;1.50;99.90;;;;;;2081342;28;20033;-67
2022/03/11 05:00:19;;;;;;;20.25;14.02;;;1.50;99.90;;;;;;2081588;28;20359;-67
2022/03/11 05:01:19;;;;;;;18.50;14.00;;;1.50;99.90;;;;;;2080614;28;20032;-68
2022/03/11 05:02:29;;;;;;;17.45;13.55;;;1.50;99.90;;;;;;2082240;28;20017;-67
2022/03/11 05:03:30;;;;;;;19.55;13.98;;;1.60;99.90;;;;;;2077982;28;20108;-67
2022/03/11 05:04:30;;;;;;;20.15;14.15;;;1.60;99.90;;;;;;2076213;28;20159;-67
2022/03/11 05:05:31;;;;;;;20.55;14.13;;;1.60;99.90;;;;;;2083578;28;20025;-67
2022/03/11 05:06:31;;;;;;;18.48;14.65;;;1.60;99.90;;;;;;2083554;28;20029;-67
2022/03/11 05:07:32;;;;;;;20.85;13.55;;;1.60;99.90;;;;;;2079911;28;20100;-67
2022/03/11 05:08:33;;;;;;;20.25;14.00;;;1.60;99.90;;;;;;2079185;28;20018;-67
2022/03/11 05:09:33;;;;;;;18.00;13.68;;;1.60;99.90;;;;;;2076043;28;20064;-67
2022/03/11 05:10:34;;;;;;;21.27;14.57;;;1.70;99.90;;;;;;2081467;28;20136;-67
2022/03/11 05:11:34;;;;;;;21.05;14.55;;;1.60;99.90;;;;;;2077904;28;20026;-67